sensor_id;sensor_type;location;lat;lon;timestamp;P1;durP1;ratioP1;P2;durP2;ratioP2
16015;SDS011;8112;53.592;10.184;2024-01-16T00:01:26;4.93;;;3.57;;
16015;SDS011;8112;53.592;10.184;2024-01-16T00:06:30;4.83;;;3.57;;
16015;SDS011;8112;53.592;10.184;2024-01-16T00:11:31;7.23;;;3.80;;
16015;SDS011;8112;53.592;10.184;2024-01-16T00:16:33;7.60;;;3.90;;
16015;SDS011;8112;53.592;10.184;2024-01-16T00:21:39;5.80;;;4.13;;
16015;SDS011;8112;53.592;10.184;2024-01-16T00:26:40;5.83;;;3.93;;
16015;SDS011;8112;53.592;10.184;2024-01-16T00:31:42;4.80;;;4.10;;
16015;SDS011;8112;53.592;10.184;2024-01-16T00:36:45;5.50;;;3.50;;
16015;SDS011;8112;53.592;10.184;2024-01-16T00:41:47;9.23;;;3.60;;
16015;SDS011;8112;53.592;10.184;2024-01-16T00:46:49;4.00;;;3.60;;
16015;SDS011;8112;53.592;10.184;2024-01-16T00:51:52;6.20;;;3.73;;
16015;SDS011;8112;53.592;10.184;2024-01-16T00:56:53;5.27;;;3.90;;
16015;SDS011;8112;53.592;10.184;2024-01-16T01:01:59;4.73;;;4.20;;
16015;SDS011;8112;53.592;10.184;2024-01-16T01:07:02;6.50;;;4.20;;
16015;SDS011;8112;53.592;10.184;2024-01-16T01:12:05;6.13;;;4.70;;
16015;SDS011;8112;53.592;10.184;2024-01-16T01:17:07;8.93;;;5.53;;
16015;SDS011;8112;53.592;10.184;2024-01-16T01:22:10;7.73;;;5.37;;
16015;SDS011;8112;53.592;10.184;2024-01-16T01:27:12;6.90;;;5.13;;
16015;SDS011;8112;53.592;10.184;2024-01-16T01:32:13;7.57;;;5.03;;
16015;SDS011;8112;53.592;10.184;2024-01-16T01:37:16;4.90;;;4.27;;
16015;SDS011;8112;53.592;10.184;2024-01-16T01:42:18;4.90;;;4.40;;
16015;SDS011;8112;53.592;10.184;2024-01-16T01:47:20;5.87;;;4.43;;
16015;SDS011;8112;53.592;10.184;2024-01-16T01:52:23;7.17;;;4.30;;
16015;SDS011;8112;53.592;10.184;2024-01-16T01:57:25;5.60;;;3.87;;
16015;SDS011;8112;53.592;10.184;2024-01-16T02:02:27;5.37;;;4.30;;
16015;SDS011;8112;53.592;10.184;2024-01-16T02:07:30;5.17;;;3.87;;
16015;SDS011;8112;53.592;10.184;2024-01-16T02:12:34;4.77;;;4.37;;
16015;SDS011;8112;53.592;10.184;2024-01-16T02:17:36;6.80;;;4.30;;
16015;SDS011;8112;53.592;10.184;2024-01-16T02:22:39;4.93;;;4.43;;
16015;SDS011;8112;53.592;10.184;2024-01-16T02:27:46;6.50;;;4.53;;
16015;SDS011;8112;53.592;10.184;2024-01-16T02:32:48;8.47;;;4.77;;
16015;SDS011;8112;53.592;10.184;2024-01-16T02:37:50;7.23;;;4.27;;
16015;SDS011;8112;53.592;10.184;2024-01-16T02:42:53;6.30;;;4.27;;
16015;SDS011;8112;53.592;10.184;2024-01-16T02:47:55;7.53;;;4.57;;
16015;SDS011;8112;53.592;10.184;2024-01-16T02:52:56;8.00;;;5.00;;
16015;SDS011;8112;53.592;10.184;2024-01-16T02:58:00;6.83;;;5.00;;
16015;SDS011;8112;53.592;10.184;2024-01-16T03:03:03;7.17;;;5.03;;
16015;SDS011;8112;53.592;10.184;2024-01-16T03:08:06;5.80;;;4.87;;
16015;SDS011;8112;53.592;10.184;2024-01-16T03:13:09;9.67;;;5.97;;
16015;SDS011;8112;53.592;10.184;2024-01-16T03:18:11;5.80;;;5.10;;
16015;SDS011;8112;53.592;10.184;2024-01-16T03:23:12;7.53;;;5.50;;
16015;SDS011;8112;53.592;10.184;2024-01-16T03:28:16;6.50;;;5.43;;
16015;SDS011;8112;53.592;10.184;2024-01-16T03:33:17;7.53;;;5.87;;
16015;SDS011;8112;53.592;10.184;2024-01-16T03:38:19;11.23;;;7.63;;
16015;SDS011;8112;53.592;10.184;2024-01-16T03:43:22;11.37;;;7.10;;
16015;SDS011;8112;53.592;10.184;2024-01-16T03:48:26;13.23;;;8.83;;
16015;SDS011;8112;53.592;10.184;2024-01-16T03:53:27;13.07;;;8.73;;
16015;SDS011;8112;53.592;10.184;2024-01-16T03:58:31;11.73;;;8.43;;
16015;SDS011;8112;53.592;10.184;2024-01-16T04:03:32;13.80;;;8.50;;
16015;SDS011;8112;53.592;10.184;2024-01-16T04:08:34;11.77;;;8.87;;
16015;SDS011;8112;53.592;10.184;2024-01-16T04:13:38;14.00;;;9.10;;
16015;SDS011;8112;53.592;10.184;2024-01-16T04:18:40;12.27;;;9.13;;
16015;SDS011;8112;53.592;10.184;2024-01-16T04:23:43;12.17;;;8.63;;
16015;SDS011;8112;53.592;10.184;2024-01-16T04:28:46;11.40;;;8.43;;
16015;SDS011;8112;53.592;10.184;2024-01-16T04:33:48;14.87;;;10.23;;
16015;SDS011;8112;53.592;10.184;2024-01-16T04:38:50;12.97;;;9.83;;
16015;SDS011;8112;53.592;10.184;2024-01-16T04:43:53;13.40;;;8.93;;
16015;SDS011;8112;53.592;10.184;2024-01-16T04:48:54;13.03;;;9.10;;
16015;SDS011;8112;53.592;10.184;2024-01-16T04:53:56;14.83;;;9.73;;
16015;SDS011;8112;53.592;10.184;2024-01-16T04:58:59;13.57;;;9.40;;
16015;SDS011;8112;53.592;10.184;2024-01-16T05:04:01;12.10;;;9.07;;
16015;SDS011;8112;53.592;10.184;2024-01-16T05:09:03;11.67;;;8.57;;
16015;SDS011;8112;53.592;10.184;2024-01-16T05:14:06;11.77;;;8.27;;
16015;SDS011;8112;53.592;10.184;2024-01-16T05:19:08;10.73;;;8.23;;
16015;SDS011;8112;53.592;10.184;2024-01-16T05:24:10;15.17;;;8.17;;
16015;SDS011;8112;53.592;10.184;2024-01-16T05:29:13;10.70;;;7.90;;
16015;SDS011;8112;53.592;10.184;2024-01-16T05:34:15;13.00;;;8.50;;
16015;SDS011;8112;53.592;10.184;2024-01-16T05:39:16;11.10;;;8.30;;
16015;SDS011;8112;53.592;10.184;2024-01-16T05:44:20;10.97;;;7.70;;
16015;SDS011;8112;53.592;10.184;2024-01-16T05:49:21;10.67;;;7.50;;
16015;SDS011;8112;53.592;10.184;2024-01-16T05:54:23;12.17;;;8.07;;
16015;SDS011;8112;53.592;10.184;2024-01-16T05:59:26;9.20;;;6.53;;
16015;SDS011;8112;53.592;10.184;2024-01-16T06:04:27;10.50;;;6.60;;
16015;SDS011;8112;53.592;10.184;2024-01-16T06:09:30;8.43;;;5.90;;
16015;SDS011;8112;53.592;10.184;2024-01-16T06:14:34;8.40;;;6.43;;
16015;SDS011;8112;53.592;10.184;2024-01-16T06:19:36;6.90;;;5.50;;
16015;SDS011;8112;53.592;10.184;2024-01-16T06:24:37;5.57;;;4.40;;
16015;SDS011;8112;53.592;10.184;2024-01-16T06:29:40;5.03;;;4.03;;
16015;SDS011;8112;53.592;10.184;2024-01-16T06:34:42;4.30;;;3.67;;
16015;SDS011;8112;53.592;10.184;2024-01-16T06:39:44;4.50;;;3.47;;
16015;SDS011;8112;53.592;10.184;2024-01-16T06:44:47;3.47;;;2.90;;
16015;SDS011;8112;53.592;10.184;2024-01-16T06:49:48;6.27;;;3.00;;
16015;SDS011;8112;53.592;10.184;2024-01-16T06:54:50;4.13;;;3.20;;
16015;SDS011;8112;53.592;10.184;2024-01-16T06:59:53;5.60;;;2.93;;
16015;SDS011;8112;53.592;10.184;2024-01-16T07:04:55;4.37;;;2.90;;
16015;SDS011;8112;53.592;10.184;2024-01-16T07:09:57;4.03;;;2.70;;
16015;SDS011;8112;53.592;10.184;2024-01-16T07:15:00;6.30;;;3.47;;
16015;SDS011;8112;53.592;10.184;2024-01-16T07:20:02;4.27;;;3.37;;
16015;SDS011;8112;53.592;10.184;2024-01-16T07:25:04;6.23;;;3.57;;
16015;SDS011;8112;53.592;10.184;2024-01-16T07:30:08;6.73;;;3.37;;
16015;SDS011;8112;53.592;10.184;2024-01-16T07:35:10;6.90;;;3.30;;
16015;SDS011;8112;53.592;10.184;2024-01-16T07:40:12;6.47;;;3.60;;
16015;SDS011;8112;53.592;10.184;2024-01-16T07:45:16;6.83;;;3.90;;
16015;SDS011;8112;53.592;10.184;2024-01-16T07:50:17;5.57;;;4.00;;
16015;SDS011;8112;53.592;10.184;2024-01-16T07:55:19;5.83;;;3.77;;
16015;SDS011;8112;53.592;10.184;2024-01-16T08:00:22;7.07;;;4.17;;
16015;SDS011;8112;53.592;10.184;2024-01-16T08:05:24;5.53;;;4.10;;
16015;SDS011;8112;53.592;10.184;2024-01-16T08:10:29;7.47;;;4.73;;
16015;SDS011;8112;53.592;10.184;2024-01-16T08:15:32;8.17;;;5.20;;
16015;SDS011;8112;53.592;10.184;2024-01-16T08:20:35;8.53;;;6.27;;
16015;SDS011;8112;53.592;10.184;2024-01-16T08:25:36;8.40;;;6.17;;
16015;SDS011;8112;53.592;10.184;2024-01-16T08:30:39;10.57;;;7.13;;
16015;SDS011;8112;53.592;10.184;2024-01-16T08:35:41;10.57;;;6.57;;
16015;SDS011;8112;53.592;10.184;2024-01-16T08:40:43;7.40;;;5.67;;
16015;SDS011;8112;53.592;10.184;2024-01-16T08:45:46;5.07;;;4.57;;
16015;SDS011;8112;53.592;10.184;2024-01-16T08:50:48;8.43;;;4.60;;
16015;SDS011;8112;53.592;10.184;2024-01-16T08:55:50;9.00;;;4.77;;
16015;SDS011;8112;53.592;10.184;2024-01-16T09:00:53;7.97;;;4.60;;
16015;SDS011;8112;53.592;10.184;2024-01-16T09:05:54;7.07;;;4.80;;
16015;SDS011;8112;53.592;10.184;2024-01-16T09:10:56;5.97;;;5.10;;
16015;SDS011;8112;53.592;10.184;2024-01-16T09:15:59;7.97;;;6.13;;
16015;SDS011;8112;53.592;10.184;2024-01-16T09:21:01;12.57;;;5.83;;
16015;SDS011;8112;53.592;10.184;2024-01-16T09:26:03;8.83;;;6.27;;
16015;SDS011;8112;53.592;10.184;2024-01-16T09:31:06;8.13;;;6.47;;
16015;SDS011;8112;53.592;10.184;2024-01-16T09:36:08;11.03;;;6.00;;
16015;SDS011;8112;53.592;10.184;2024-01-16T09:41:10;6.37;;;5.00;;
16015;SDS011;8112;53.592;10.184;2024-01-16T09:46:13;8.07;;;4.90;;
16015;SDS011;8112;53.592;10.184;2024-01-16T09:51:17;7.57;;;4.57;;
16015;SDS011;8112;53.592;10.184;2024-01-16T09:56:21;8.20;;;4.47;;
16015;SDS011;8112;53.592;10.184;2024-01-16T10:01:26;5.63;;;3.97;;
16015;SDS011;8112;53.592;10.184;2024-01-16T10:06:29;6.83;;;3.70;;
16015;SDS011;8112;53.592;10.184;2024-01-16T10:11:33;7.10;;;3.40;;
16015;SDS011;8112;53.592;10.184;2024-01-16T10:22:03;5.70;;;3.50;;
16015;SDS011;8112;53.592;10.184;2024-01-16T10:27:06;6.53;;;3.13;;
16015;SDS011;8112;53.592;10.184;2024-01-16T10:32:09;5.63;;;2.97;;
16015;SDS011;8112;53.592;10.184;2024-01-16T10:37:11;4.57;;;2.87;;
16015;SDS011;8112;53.592;10.184;2024-01-16T10:42:12;3.23;;;2.70;;
16015;SDS011;8112;53.592;10.184;2024-01-16T10:47:18;3.67;;;2.50;;
16015;SDS011;8112;53.592;10.184;2024-01-16T10:52:20;3.83;;;2.83;;
16015;SDS011;8112;53.592;10.184;2024-01-16T10:57:28;4.00;;;2.47;;
16015;SDS011;8112;53.592;10.184;2024-01-16T11:02:35;6.87;;;3.00;;
16015;SDS011;8112;53.592;10.184;2024-01-16T11:07:42;6.53;;;2.40;;
16015;SDS011;8112;53.592;10.184;2024-01-16T11:12:45;6.23;;;2.53;;
16015;SDS011;8112;53.592;10.184;2024-01-16T11:17:49;5.43;;;2.57;;
16015;SDS011;8112;53.592;10.184;2024-01-16T11:22:51;7.67;;;2.50;;
16015;SDS011;8112;53.592;10.184;2024-01-16T11:28:07;6.80;;;2.43;;
16015;SDS011;8112;53.592;10.184;2024-01-16T11:38:46;4.93;;;2.43;;
16015;SDS011;8112;53.592;10.184;2024-01-16T11:43:48;7.17;;;2.93;;
16015;SDS011;8112;53.592;10.184;2024-01-16T11:49:01;3.60;;;2.23;;
16015;SDS011;8112;53.592;10.184;2024-01-16T11:54:03;3.70;;;2.43;;
16015;SDS011;8112;53.592;10.184;2024-01-16T12:04:42;5.17;;;2.40;;
16015;SDS011;8112;53.592;10.184;2024-01-16T12:09:53;5.63;;;2.43;;
16015;SDS011;8112;53.592;10.184;2024-01-16T12:15:00;4.23;;;2.50;;
16015;SDS011;8112;53.592;10.184;2024-01-16T12:20:16;5.07;;;2.80;;
16015;SDS011;8112;53.592;10.184;2024-01-16T12:25:19;8.37;;;3.47;;
16015;SDS011;8112;53.592;10.184;2024-01-16T12:30:23;4.77;;;2.90;;
16015;SDS011;8112;53.592;10.184;2024-01-16T12:35:26;9.10;;;3.00;;
16015;SDS011;8112;53.592;10.184;2024-01-16T12:40:28;9.30;;;3.53;;
16015;SDS011;8112;53.592;10.184;2024-01-16T12:45:30;6.03;;;3.43;;
16015;SDS011;8112;53.592;10.184;2024-01-16T12:50:34;6.10;;;3.33;;
16015;SDS011;8112;53.592;10.184;2024-01-16T12:55:38;4.97;;;2.57;;
16015;SDS011;8112;53.592;10.184;2024-01-16T13:00:40;2.97;;;2.57;;
16015;SDS011;8112;53.592;10.184;2024-01-16T13:05:44;7.93;;;2.93;;
16015;SDS011;8112;53.592;10.184;2024-01-16T13:10:47;7.27;;;2.40;;
16015;SDS011;8112;53.592;10.184;2024-01-16T13:16:04;6.57;;;2.60;;
16015;SDS011;8112;53.592;10.184;2024-01-16T13:21:07;4.40;;;2.17;;
16015;SDS011;8112;53.592;10.184;2024-01-16T13:26:09;4.03;;;2.73;;
16015;SDS011;8112;53.592;10.184;2024-01-16T13:31:12;5.13;;;2.93;;
16015;SDS011;8112;53.592;10.184;2024-01-16T13:36:15;4.20;;;2.20;;
16015;SDS011;8112;53.592;10.184;2024-01-16T13:41:17;5.47;;;2.83;;
16015;SDS011;8112;53.592;10.184;2024-01-16T13:46:19;2.83;;;2.50;;
16015;SDS011;8112;53.592;10.184;2024-01-16T13:51:23;5.57;;;3.03;;
16015;SDS011;8112;53.592;10.184;2024-01-16T13:56:25;4.40;;;2.50;;
16015;SDS011;8112;53.592;10.184;2024-01-16T14:01:27;6.93;;;2.93;;
16015;SDS011;8112;53.592;10.184;2024-01-16T14:06:31;5.30;;;3.07;;
16015;SDS011;8112;53.592;10.184;2024-01-16T14:11:33;6.37;;;3.43;;
16015;SDS011;8112;53.592;10.184;2024-01-16T14:16:34;8.03;;;4.00;;
16015;SDS011;8112;53.592;10.184;2024-01-16T14:21:37;6.80;;;5.27;;
16015;SDS011;8112;53.592;10.184;2024-01-16T14:26:41;6.60;;;5.47;;
16015;SDS011;8112;53.592;10.184;2024-01-16T14:31:44;7.47;;;6.13;;
16015;SDS011;8112;53.592;10.184;2024-01-16T14:36:50;11.13;;;6.97;;
16015;SDS011;8112;53.592;10.184;2024-01-16T14:41:53;7.50;;;5.87;;
16015;SDS011;8112;53.592;10.184;2024-01-16T14:46:55;9.93;;;5.67;;
16015;SDS011;8112;53.592;10.184;2024-01-16T14:51:58;8.47;;;6.73;;
16015;SDS011;8112;53.592;10.184;2024-01-16T14:57:01;11.47;;;5.60;;
16015;SDS011;8112;53.592;10.184;2024-01-16T15:02:03;6.93;;;5.53;;
16015;SDS011;8112;53.592;10.184;2024-01-16T15:07:13;6.13;;;4.70;;
16015;SDS011;8112;53.592;10.184;2024-01-16T15:12:15;10.63;;;5.50;;
16015;SDS011;8112;53.592;10.184;2024-01-16T15:17:18;7.43;;;5.33;;
16015;SDS011;8112;53.592;10.184;2024-01-16T15:22:22;9.67;;;4.73;;
16015;SDS011;8112;53.592;10.184;2024-01-16T15:27:23;8.37;;;5.67;;
16015;SDS011;8112;53.592;10.184;2024-01-16T15:32:25;6.83;;;5.20;;
16015;SDS011;8112;53.592;10.184;2024-01-16T15:37:28;7.17;;;4.97;;
16015;SDS011;8112;53.592;10.184;2024-01-16T15:42:32;9.27;;;5.13;;
16015;SDS011;8112;53.592;10.184;2024-01-16T15:47:36;7.77;;;5.17;;
16015;SDS011;8112;53.592;10.184;2024-01-16T15:52:39;7.83;;;5.20;;
16015;SDS011;8112;53.592;10.184;2024-01-16T15:57:41;6.30;;;4.97;;
16015;SDS011;8112;53.592;10.184;2024-01-16T16:02:43;8.73;;;5.10;;
16015;SDS011;8112;53.592;10.184;2024-01-16T16:07:49;12.13;;;4.83;;
16015;SDS011;8112;53.592;10.184;2024-01-16T16:12:51;6.77;;;4.73;;
16015;SDS011;8112;53.592;10.184;2024-01-16T16:17:52;8.57;;;4.93;;
16015;SDS011;8112;53.592;10.184;2024-01-16T16:22:56;10.23;;;5.87;;
16015;SDS011;8112;53.592;10.184;2024-01-16T16:27:57;12.13;;;5.93;;
16015;SDS011;8112;53.592;10.184;2024-01-16T16:32:59;11.27;;;8.23;;
16015;SDS011;8112;53.592;10.184;2024-01-16T16:38:02;12.13;;;8.37;;
16015;SDS011;8112;53.592;10.184;2024-01-16T16:43:04;11.80;;;7.87;;
16015;SDS011;8112;53.592;10.184;2024-01-16T16:48:06;14.30;;;9.17;;
16015;SDS011;8112;53.592;10.184;2024-01-16T16:53:09;17.47;;;10.67;;
16015;SDS011;8112;53.592;10.184;2024-01-16T16:58:11;17.20;;;9.40;;
16015;SDS011;8112;53.592;10.184;2024-01-16T17:03:13;17.27;;;10.37;;
16015;SDS011;8112;53.592;10.184;2024-01-16T17:08:16;17.17;;;11.00;;
16015;SDS011;8112;53.592;10.184;2024-01-16T17:13:18;14.10;;;10.20;;
16015;SDS011;8112;53.592;10.184;2024-01-16T17:18:20;14.23;;;10.23;;
16015;SDS011;8112;53.592;10.184;2024-01-16T17:23:23;14.97;;;10.33;;
16015;SDS011;8112;53.592;10.184;2024-01-16T17:28:25;14.60;;;10.70;;
16015;SDS011;8112;53.592;10.184;2024-01-16T17:33:28;15.87;;;10.83;;
16015;SDS011;8112;53.592;10.184;2024-01-16T17:38:32;15.90;;;11.03;;
16015;SDS011;8112;53.592;10.184;2024-01-16T17:43:33;16.60;;;10.97;;
16015;SDS011;8112;53.592;10.184;2024-01-16T17:48:35;16.00;;;11.03;;
16015;SDS011;8112;53.592;10.184;2024-01-16T17:53:38;18.93;;;11.83;;
16015;SDS011;8112;53.592;10.184;2024-01-16T17:58:40;17.27;;;10.60;;
16015;SDS011;8112;53.592;10.184;2024-01-16T18:03:42;19.90;;;12.10;;
16015;SDS011;8112;53.592;10.184;2024-01-16T18:08:48;18.50;;;11.33;;
16015;SDS011;8112;53.592;10.184;2024-01-16T18:13:50;15.60;;;11.73;;
16015;SDS011;8112;53.592;10.184;2024-01-16T18:18:51;23.73;;;12.20;;
16015;SDS011;8112;53.592;10.184;2024-01-16T18:23:54;14.87;;;11.23;;
16015;SDS011;8112;53.592;10.184;2024-01-16T18:28:57;15.87;;;11.80;;
16015;SDS011;8112;53.592;10.184;2024-01-16T18:33:59;16.00;;;11.43;;
16015;SDS011;8112;53.592;10.184;2024-01-16T18:39:02;16.50;;;12.50;;
16015;SDS011;8112;53.592;10.184;2024-01-16T18:44:06;15.50;;;12.10;;
16015;SDS011;8112;53.592;10.184;2024-01-16T18:49:12;19.30;;;12.67;;
16015;SDS011;8112;53.592;10.184;2024-01-16T18:54:15;19.57;;;14.60;;
16015;SDS011;8112;53.592;10.184;2024-01-16T18:59:17;19.47;;;13.47;;
16015;SDS011;8112;53.592;10.184;2024-01-16T19:04:22;18.47;;;13.43;;
16015;SDS011;8112;53.592;10.184;2024-01-16T19:09:25;18.83;;;14.70;;
16015;SDS011;8112;53.592;10.184;2024-01-16T19:14:35;18.83;;;13.60;;
16015;SDS011;8112;53.592;10.184;2024-01-16T19:19:37;21.30;;;13.43;;
16015;SDS011;8112;53.592;10.184;2024-01-16T19:24:40;18.07;;;12.50;;
16015;SDS011;8112;53.592;10.184;2024-01-16T19:29:42;18.33;;;12.73;;
16015;SDS011;8112;53.592;10.184;2024-01-16T19:34:44;16.40;;;13.40;;
16015;SDS011;8112;53.592;10.184;2024-01-16T19:39:48;17.83;;;12.50;;
16015;SDS011;8112;53.592;10.184;2024-01-16T19:44:49;16.60;;;13.23;;
16015;SDS011;8112;53.592;10.184;2024-01-16T19:49:51;16.27;;;11.63;;
16015;SDS011;8112;53.592;10.184;2024-01-16T19:54:55;15.70;;;11.70;;
16015;SDS011;8112;53.592;10.184;2024-01-16T20:00:00;19.83;;;12.20;;
16015;SDS011;8112;53.592;10.184;2024-01-16T20:05:12;14.20;;;10.60;;
16015;SDS011;8112;53.592;10.184;2024-01-16T20:10:16;19.60;;;11.13;;
16015;SDS011;8112;53.592;10.184;2024-01-16T20:15:18;14.90;;;10.53;;
16015;SDS011;8112;53.592;10.184;2024-01-16T20:20:20;12.10;;;10.20;;
16015;SDS011;8112;53.592;10.184;2024-01-16T20:25:23;15.20;;;9.60;;
16015;SDS011;8112;53.592;10.184;2024-01-16T20:30:25;17.20;;;10.40;;
16015;SDS011;8112;53.592;10.184;2024-01-16T20:35:27;13.37;;;9.83;;
16015;SDS011;8112;53.592;10.184;2024-01-16T20:40:30;10.83;;;9.50;;
16015;SDS011;8112;53.592;10.184;2024-01-16T20:45:31;14.57;;;10.37;;
16015;SDS011;8112;53.592;10.184;2024-01-16T20:50:33;13.30;;;10.17;;
16015;SDS011;8112;53.592;10.184;2024-01-16T20:55:36;12.93;;;10.93;;
16015;SDS011;8112;53.592;10.184;2024-01-16T21:00:39;13.63;;;10.23;;
16015;SDS011;8112;53.592;10.184;2024-01-16T21:05:41;13.43;;;9.73;;
16015;SDS011;8112;53.592;10.184;2024-01-16T21:10:44;14.67;;;10.37;;
16015;SDS011;8112;53.592;10.184;2024-01-16T21:15:46;13.60;;;10.33;;
16015;SDS011;8112;53.592;10.184;2024-01-16T21:20:47;15.07;;;10.93;;
16015;SDS011;8112;53.592;10.184;2024-01-16T21:25:51;15.13;;;10.43;;
16015;SDS011;8112;53.592;10.184;2024-01-16T21:30:52;12.23;;;10.43;;
16015;SDS011;8112;53.592;10.184;2024-01-16T21:35:57;15.93;;;10.60;;
16015;SDS011;8112;53.592;10.184;2024-01-16T21:41:00;15.60;;;10.27;;
16015;SDS011;8112;53.592;10.184;2024-01-16T21:46:02;16.43;;;11.00;;
16015;SDS011;8112;53.592;10.184;2024-01-16T21:51:04;15.97;;;10.50;;
16015;SDS011;8112;53.592;10.184;2024-01-16T21:56:07;14.97;;;10.87;;
16015;SDS011;8112;53.592;10.184;2024-01-16T22:01:08;16.77;;;11.60;;
16015;SDS011;8112;53.592;10.184;2024-01-16T22:06:11;15.27;;;10.87;;
16015;SDS011;8112;53.592;10.184;2024-01-16T22:11:15;15.63;;;11.37;;
16015;SDS011;8112;53.592;10.184;2024-01-16T22:16:17;17.07;;;11.30;;
16015;SDS011;8112;53.592;10.184;2024-01-16T22:21:19;16.87;;;11.60;;
16015;SDS011;8112;53.592;10.184;2024-01-16T22:26:22;18.67;;;12.43;;
16015;SDS011;8112;53.592;10.184;2024-01-16T22:31:24;14.97;;;11.73;;
16015;SDS011;8112;53.592;10.184;2024-01-16T22:36:26;17.47;;;11.70;;
16015;SDS011;8112;53.592;10.184;2024-01-16T22:41:29;18.20;;;12.07;;
16015;SDS011;8112;53.592;10.184;2024-01-16T22:46:34;13.87;;;11.33;;
16015;SDS011;8112;53.592;10.184;2024-01-16T22:51:36;16.17;;;12.47;;
16015;SDS011;8112;53.592;10.184;2024-01-16T22:56:39;15.43;;;12.40;;
16015;SDS011;8112;53.592;10.184;2024-01-16T23:01:41;18.07;;;13.00;;
16015;SDS011;8112;53.592;10.184;2024-01-16T23:06:44;20.73;;;13.50;;
16015;SDS011;8112;53.592;10.184;2024-01-16T23:11:47;17.50;;;12.73;;
16015;SDS011;8112;53.592;10.184;2024-01-16T23:16:48;19.53;;;13.70;;
16015;SDS011;8112;53.592;10.184;2024-01-16T23:21:50;21.00;;;14.07;;
16015;SDS011;8112;53.592;10.184;2024-01-16T23:26:53;20.00;;;14.83;;
16015;SDS011;8112;53.592;10.184;2024-01-16T23:31:55;21.10;;;13.63;;
16015;SDS011;8112;53.592;10.184;2024-01-16T23:36:56;20.57;;;13.47;;
16015;SDS011;8112;53.592;10.184;2024-01-16T23:41:59;24.03;;;15.20;;
16015;SDS011;8112;53.592;10.184;2024-01-16T23:47:01;22.43;;;16.00;;
16015;SDS011;8112;53.592;10.184;2024-01-16T23:52:03;18.60;;;14.03;;
16015;SDS011;8112;53.592;10.184;2024-01-16T23:57:06;21.53;;;15.73;;
